sensor_id;sensor_type;location;lat;lon;timestamp;pressure;altitude;pressure_sealevel;temperature;humidity
79118;BME280;68523;51.336;-0.846;2024-01-15T00:00:00;100065.0;;;0.85;89.1
79118;BME280;68523;51.336;-0.846;2024-01-15T00:03:00;100065.0;;;0.88;88.6
79118;BME280;68523;51.336;-0.846;2024-01-15T00:06:00;100055.0;;;0.85;88.5
79118;BME280;68523;51.336;-0.846;2024-01-15T00:09:00;100055.0;;;0.85;88.4
79118;BME280;68523;51.336;-0.846;2024-01-15T00:12:01;100055.0;;;0.89;88.1
79118;BME280;68523;51.336;-0.846;2024-01-15T00:15:00;100055.0;;;0.82;88.4
79118;BME280;68523;51.336;-0.846;2024-01-15T00:18:00;100055.0;;;0.82;88.4
79118;BME280;68523;51.336;-0.846;2024-01-15T00:21:00;100055.0;;;0.76;88.6
79118;BME280;68523;51.336;-0.846;2024-01-15T00:24:00;100055.0;;;0.75;88.5
79118;BME280;68523;51.336;-0.846;2024-01-15T00:27:00;100045.0;;;0.69;88.4
79118;BME280;68523;51.336;-0.846;2024-01-15T00:30:01;100045.0;;;0.67;88.3
79118;BME280;68523;51.336;-0.846;2024-01-15T00:33:00;100035.0;;;0.56;88.5
79118;BME280;68523;51.336;-0.846;2024-01-15T00:36:00;100035.0;;;0.63;88.0
79118;BME280;68523;51.336;-0.846;2024-01-15T00:39:00;100025.0;;;0.56;87.9
79118;BME280;68523;51.336;-0.846;2024-01-15T00:42:00;100025.0;;;0.53;88.1
79118;BME280;68523;51.336;-0.846;2024-01-15T00:45:00;100015.0;;;0.46;88.2
79118;BME280;68523;51.336;-0.846;2024-01-15T00:48:00;100015.0;;;0.42;88.2
79118;BME280;68523;51.336;-0.846;2024-01-15T00:51:00;100015.0;;;0.32;88.6
79118;BME280;68523;51.336;-0.846;2024-01-15T00:54:00;100015.0;;;0.25;88.6
79118;BME280;68523;51.336;-0.846;2024-01-15T00:57:00;100015.0;;;0.15;88.7
79118;BME280;68523;51.336;-0.846;2024-01-15T01:00:00;100015.0;;;0.11;88.5
79118;BME280;68523;51.336;-0.846;2024-01-15T01:03:00;100005.0;;;0.05;88.6
79118;BME280;68523;51.336;-0.846;2024-01-15T01:06:00;100005.0;;;0.02;88.7
79118;BME280;68523;51.336;-0.846;2024-01-15T01:09:00;100005.0;;;0.08;88.8
79118;BME280;68523;51.336;-0.846;2024-01-15T01:12:00;99995.0;;;0.15;88.9
79118;BME280;68523;51.336;-0.846;2024-01-15T01:15:01;99995.0;;;0.27;89.0
79118;BME280;68523;51.336;-0.846;2024-01-15T01:18:00;99985.0;;;0.31;88.9
79118;BME280;68523;51.336;-0.846;2024-01-15T01:21:00;99985.0;;;0.26;89.1
79118;BME280;68523;51.336;-0.846;2024-01-15T01:24:00;99985.0;;;0.29;89.0
79118;BME280;68523;51.336;-0.846;2024-01-15T01:27:00;99985.0;;;0.32;88.8
79118;BME280;68523;51.336;-0.846;2024-01-15T01:30:00;99985.0;;;0.27;88.9
79118;BME280;68523;51.336;-0.846;2024-01-15T01:33:00;99975.0;;;0.25;88.9
79118;BME280;68523;51.336;-0.846;2024-01-15T01:36:00;99975.0;;;0.26;88.7
79118;BME280;68523;51.336;-0.846;2024-01-15T01:39:00;99975.0;;;0.29;88.3
79118;BME280;68523;51.336;-0.846;2024-01-15T01:42:00;99975.0;;;0.29;88.2
79118;BME280;68523;51.336;-0.846;2024-01-15T01:45:00;99975.0;;;0.33;88.3
79118;BME280;68523;51.336;-0.846;2024-01-15T01:48:01;99985.0;;;0.32;88.4
79118;BME280;68523;51.336;-0.846;2024-01-15T01:51:02;99985.0;;;0.33;88.3
79118;BME280;68523;51.336;-0.846;2024-01-15T01:54:00;99985.0;;;0.39;87.8
79118;BME280;68523;51.336;-0.846;2024-01-15T01:57:02;99975.0;;;0.42;87.7
79118;BME280;68523;51.336;-0.846;2024-01-15T02:00:02;99985.0;;;0.44;87.6
79118;BME280;68523;51.336;-0.846;2024-01-15T02:03:03;99985.0;;;0.43;87.7
79118;BME280;68523;51.336;-0.846;2024-01-15T02:06:00;99985.0;;;0.44;87.5
79118;BME280;68523;51.336;-0.846;2024-01-15T02:09:00;99985.0;;;0.47;87.6
79118;BME280;68523;51.336;-0.846;2024-01-15T02:12:00;99985.0;;;0.48;87.7
79118;BME280;68523;51.336;-0.846;2024-01-15T02:15:00;99985.0;;;0.48;87.7
79118;BME280;68523;51.336;-0.846;2024-01-15T02:18:01;99985.0;;;0.52;87.8
79118;BME280;68523;51.336;-0.846;2024-01-15T02:21:00;99985.0;;;0.51;87.9
79118;BME280;68523;51.336;-0.846;2024-01-15T02:24:00;99985.0;;;0.52;88.1
79118;BME280;68523;51.336;-0.846;2024-01-15T02:27:00;99995.0;;;0.48;88.4
79118;BME280;68523;51.336;-0.846;2024-01-15T02:30:01;99995.0;;;0.46;88.6
79118;BME280;68523;51.336;-0.846;2024-01-15T02:33:00;99985.0;;;0.48;88.4
79118;BME280;68523;51.336;-0.846;2024-01-15T02:36:00;99985.0;;;0.48;88.6
79118;BME280;68523;51.336;-0.846;2024-01-15T02:39:00;99985.0;;;0.51;88.5
79118;BME280;68523;51.336;-0.846;2024-01-15T02:42:00;99985.0;;;0.51;88.5
79118;BME280;68523;51.336;-0.846;2024-01-15T02:45:00;99985.0;;;0.51;88.6
79118;BME280;68523;51.336;-0.846;2024-01-15T02:48:00;99975.0;;;0.55;88.5
79118;BME280;68523;51.336;-0.846;2024-01-15T02:51:00;99975.0;;;0.59;88.1
79118;BME280;68523;51.336;-0.846;2024-01-15T02:54:00;99975.0;;;0.66;88.0
79118;BME280;68523;51.336;-0.846;2024-01-15T02:57:00;99975.0;;;0.70;87.9
79118;BME280;68523;51.336;-0.846;2024-01-15T03:00:00;99975.0;;;0.76;87.6
79118;BME280;68523;51.336;-0.846;2024-01-15T03:03:00;99965.0;;;0.82;87.1
79118;BME280;68523;51.336;-0.846;2024-01-15T03:06:01;99965.0;;;0.79;87.2
79118;BME280;68523;51.336;-0.846;2024-01-15T03:09:00;99965.0;;;0.74;87.5
79118;BME280;68523;51.336;-0.846;2024-01-15T03:12:00;99965.0;;;0.66;87.5
79118;BME280;68523;51.336;-0.846;2024-01-15T03:15:00;99965.0;;;0.64;87.6
79118;BME280;68523;51.336;-0.846;2024-01-15T03:18:00;99965.0;;;0.55;87.8
79118;BME280;68523;51.336;-0.846;2024-01-15T03:21:00;99975.0;;;0.52;87.9
79118;BME280;68523;51.336;-0.846;2024-01-15T03:24:00;99975.0;;;0.44;88.0
79118;BME280;68523;51.336;-0.846;2024-01-15T03:27:00;99975.0;;;0.42;88.2
79118;BME280;68523;51.336;-0.846;2024-01-15T03:30:00;99985.0;;;0.39;88.2
79118;BME280;68523;51.336;-0.846;2024-01-15T03:33:00;99985.0;;;0.32;88.5
79118;BME280;68523;51.336;-0.846;2024-01-15T03:36:00;99985.0;;;0.27;88.8
79118;BME280;68523;51.336;-0.846;2024-01-15T03:39:00;99985.0;;;0.18;89.1
79118;BME280;68523;51.336;-0.846;2024-01-15T03:42:01;99985.0;;;0.16;89.3
79118;BME280;68523;51.336;-0.846;2024-01-15T03:45:00;99985.0;;;0.16;89.3
79118;BME280;68523;51.336;-0.846;2024-01-15T03:48:00;99975.0;;;0.23;89.1
79118;BME280;68523;51.336;-0.846;2024-01-15T03:51:00;99975.0;;;0.24;89.0
79118;BME280;68523;51.336;-0.846;2024-01-15T03:54:00;99975.0;;;0.29;88.8
79118;BME280;68523;51.336;-0.846;2024-01-15T03:57:00;99975.0;;;0.29;88.7
79118;BME280;68523;51.336;-0.846;2024-01-15T04:00:00;99975.0;;;0.29;88.8
79118;BME280;68523;51.336;-0.846;2024-01-15T04:03:00;99965.0;;;0.36;88.5
79118;BME280;68523;51.336;-0.846;2024-01-15T04:06:00;99975.0;;;0.40;88.4
79118;BME280;68523;51.336;-0.846;2024-01-15T04:09:00;99975.0;;;0.49;88.2
79118;BME280;68523;51.336;-0.846;2024-01-15T04:12:00;99965.0;;;0.58;87.9
79118;BME280;68523;51.336;-0.846;2024-01-15T04:15:00;99965.0;;;0.60;88.0
79118;BME280;68523;51.336;-0.846;2024-01-15T04:18:01;99965.0;;;0.66;87.6
79118;BME280;68523;51.336;-0.846;2024-01-15T04:21:00;99965.0;;;0.68;87.9
79118;BME280;68523;51.336;-0.846;2024-01-15T04:24:00;99965.0;;;0.72;87.8
79118;BME280;68523;51.336;-0.846;2024-01-15T04:27:00;99965.0;;;0.80;87.4
79118;BME280;68523;51.336;-0.846;2024-01-15T04:30:00;99955.0;;;0.77;87.7
79118;BME280;68523;51.336;-0.846;2024-01-15T04:33:00;99955.0;;;0.82;87.5
79118;BME280;68523;51.336;-0.846;2024-01-15T04:36:02;99955.0;;;0.87;87.3
79118;BME280;68523;51.336;-0.846;2024-01-15T04:39:00;99955.0;;;0.88;87.5
79118;BME280;68523;51.336;-0.846;2024-01-15T04:42:00;99945.0;;;0.93;87.3
79118;BME280;68523;51.336;-0.846;2024-01-15T04:45:00;99945.0;;;0.97;86.9
79118;BME280;68523;51.336;-0.846;2024-01-15T04:48:00;99945.0;;;0.95;87.3
79118;BME280;68523;51.336;-0.846;2024-01-15T04:51:00;99945.0;;;0.95;87.2
79118;BME280;68523;51.336;-0.846;2024-01-15T04:54:01;99935.0;;;0.98;87.2
79118;BME280;68523;51.336;-0.846;2024-01-15T04:57:00;99935.0;;;1.00;87.2
79118;BME280;68523;51.336;-0.846;2024-01-15T05:00:00;99935.0;;;0.97;87.2
79118;BME280;68523;51.336;-0.846;2024-01-15T05:03:00;99935.0;;;0.96;87.4
79118;BME280;68523;51.336;-0.846;2024-01-15T05:06:00;99935.0;;;0.93;87.3
79118;BME280;68523;51.336;-0.846;2024-01-15T05:09:00;99935.0;;;0.91;87.2
79118;BME280;68523;51.336;-0.846;2024-01-15T05:12:00;99945.0;;;0.82;87.6
79118;BME280;68523;51.336;-0.846;2024-01-15T05:15:00;99945.0;;;0.74;88.1
79118;BME280;68523;51.336;-0.846;2024-01-15T05:18:00;99945.0;;;0.64;88.3
79118;BME280;68523;51.336;-0.846;2024-01-15T05:21:00;99945.0;;;0.58;88.5
79118;BME280;68523;51.336;-0.846;2024-01-15T05:24:00;99945.0;;;0.51;88.8
79118;BME280;68523;51.336;-0.846;2024-01-15T05:27:00;99945.0;;;0.43;89.1
79118;BME280;68523;51.336;-0.846;2024-01-15T05:30:00;99945.0;;;0.34;89.4
79118;BME280;68523;51.336;-0.846;2024-01-15T05:33:00;99945.0;;;0.30;89.5
79118;BME280;68523;51.336;-0.846;2024-01-15T05:36:00;99945.0;;;0.26;89.7
79118;BME280;68523;51.336;-0.846;2024-01-15T05:39:00;99935.0;;;0.20;89.8
79118;BME280;68523;51.336;-0.846;2024-01-15T05:42:00;99935.0;;;0.12;90.2
79118;BME280;68523;51.336;-0.846;2024-01-15T05:45:00;99935.0;;;0.05;90.5
79118;BME280;68523;51.336;-0.846;2024-01-15T05:48:00;99945.0;;;-0.01;90.6
79118;BME280;68523;51.336;-0.846;2024-01-15T05:51:00;99945.0;;;-0.01;90.7
79118;BME280;68523;51.336;-0.846;2024-01-15T05:54:00;99945.0;;;-0.05;90.8
79118;BME280;68523;51.336;-0.846;2024-01-15T05:57:00;99945.0;;;-0.01;90.8
79118;BME280;68523;51.336;-0.846;2024-01-15T06:00:00;99955.0;;;0.02;90.8
79118;BME280;68523;51.336;-0.846;2024-01-15T06:03:00;99955.0;;;0.10;90.7
79118;BME280;68523;51.336;-0.846;2024-01-15T06:06:00;99955.0;;;0.17;90.7
79118;BME280;68523;51.336;-0.846;2024-01-15T06:09:00;99965.0;;;0.18;90.6
79118;BME280;68523;51.336;-0.846;2024-01-15T06:12:00;99965.0;;;0.15;90.7
79118;BME280;68523;51.336;-0.846;2024-01-15T06:15:01;99975.0;;;0.09;91.0
79118;BME280;68523;51.336;-0.846;2024-01-15T06:18:00;99975.0;;;0.01;91.4
79118;BME280;68523;51.336;-0.846;2024-01-15T06:21:00;99985.0;;;0.03;91.3
79118;BME280;68523;51.336;-0.846;2024-01-15T06:24:00;99985.0;;;-0.09;91.8
79118;BME280;68523;51.336;-0.846;2024-01-15T06:27:00;99985.0;;;-0.10;91.9
79118;BME280;68523;51.336;-0.846;2024-01-15T06:30:00;99985.0;;;-0.14;92.1
79118;BME280;68523;51.336;-0.846;2024-01-15T06:33:00;100005.0;;;-0.15;92.2
79118;BME280;68523;51.336;-0.846;2024-01-15T06:36:00;99995.0;;;-0.25;92.4
79118;BME280;68523;51.336;-0.846;2024-01-15T06:39:00;99995.0;;;-0.32;92.7
79118;BME280;68523;51.336;-0.846;2024-01-15T06:42:00;99995.0;;;-0.22;92.5
79118;BME280;68523;51.336;-0.846;2024-01-15T06:45:00;99995.0;;;-0.29;92.4
79118;BME280;68523;51.336;-0.846;2024-01-15T06:48:00;100005.0;;;-0.33;92.4
79118;BME280;68523;51.336;-0.846;2024-01-15T06:51:00;100005.0;;;-0.25;91.9
79118;BME280;68523;51.336;-0.846;2024-01-15T06:54:00;99995.0;;;-0.33;91.9
79118;BME280;68523;51.336;-0.846;2024-01-15T06:57:00;99985.0;;;-0.38;92.0
79118;BME280;68523;51.336;-0.846;2024-01-15T07:00:00;99985.0;;;-0.42;92.0
79118;BME280;68523;51.336;-0.846;2024-01-15T07:03:00;99985.0;;;-0.39;91.8
79118;BME280;68523;51.336;-0.846;2024-01-15T07:06:00;99995.0;;;-0.39;91.6
79118;BME280;68523;51.336;-0.846;2024-01-15T07:09:00;99995.0;;;-0.43;91.7
79118;BME280;68523;51.336;-0.846;2024-01-15T07:12:00;99985.0;;;-0.54;91.8
79118;BME280;68523;51.336;-0.846;2024-01-15T07:15:00;99985.0;;;-0.53;91.8
79118;BME280;68523;51.336;-0.846;2024-01-15T07:18:00;99985.0;;;-0.58;91.9
79118;BME280;68523;51.336;-0.846;2024-01-15T07:21:00;99985.0;;;-0.53;91.6
79118;BME280;68523;51.336;-0.846;2024-01-15T07:24:00;99985.0;;;-0.63;91.7
79118;BME280;68523;51.336;-0.846;2024-01-15T07:27:00;99985.0;;;-0.70;92.0
79118;BME280;68523;51.336;-0.846;2024-01-15T07:30:00;99985.0;;;-0.76;92.0
79118;BME280;68523;51.336;-0.846;2024-01-15T07:33:01;99995.0;;;-0.78;92.1
79118;BME280;68523;51.336;-0.846;2024-01-15T07:36:00;99995.0;;;-0.80;92.3
79118;BME280;68523;51.336;-0.846;2024-01-15T07:39:00;99995.0;;;-0.81;92.2
79118;BME280;68523;51.336;-0.846;2024-01-15T07:42:00;99995.0;;;-0.87;92.3
79118;BME280;68523;51.336;-0.846;2024-01-15T07:45:00;100005.0;;;-0.87;92.0
79118;BME280;68523;51.336;-0.846;2024-01-15T07:48:00;100015.0;;;-0.96;92.2
79118;BME280;68523;51.336;-0.846;2024-01-15T07:51:00;100015.0;;;-0.98;92.3
79118;BME280;68523;51.336;-0.846;2024-01-15T07:54:00;100015.0;;;-1.00;92.2
79118;BME280;68523;51.336;-0.846;2024-01-15T07:57:01;100015.0;;;-1.06;92.4
79118;BME280;68523;51.336;-0.846;2024-01-15T08:00:00;100015.0;;;-1.12;92.5
79118;BME280;68523;51.336;-0.846;2024-01-15T08:03:00;100015.0;;;-1.13;92.7
79118;BME280;68523;51.336;-0.846;2024-01-15T08:06:00;100025.0;;;-1.17;92.8
79118;BME280;68523;51.336;-0.846;2024-01-15T08:09:00;100025.0;;;-1.20;93.1
79118;BME280;68523;51.336;-0.846;2024-01-15T08:12:00;100035.0;;;-1.21;93.1
79118;BME280;68523;51.336;-0.846;2024-01-15T08:15:00;100045.0;;;-1.26;93.3
79118;BME280;68523;51.336;-0.846;2024-01-15T08:18:00;100045.0;;;-1.16;92.9
79118;BME280;68523;51.336;-0.846;2024-01-15T08:21:00;100045.0;;;-1.19;93.0
79118;BME280;68523;51.336;-0.846;2024-01-15T08:24:01;100045.0;;;-1.19;92.9
79118;BME280;68523;51.336;-0.846;2024-01-15T08:27:00;100045.0;;;-1.20;93.0
79118;BME280;68523;51.336;-0.846;2024-01-15T08:30:00;100045.0;;;-1.20;92.9
79118;BME280;68523;51.336;-0.846;2024-01-15T08:33:00;100055.0;;;-1.16;92.8
79118;BME280;68523;51.336;-0.846;2024-01-15T08:36:00;100055.0;;;-1.09;92.5
79118;BME280;68523;51.336;-0.846;2024-01-15T08:39:00;100065.0;;;-1.06;92.4
79118;BME280;68523;51.336;-0.846;2024-01-15T08:42:00;100075.0;;;-0.98;92.0
79118;BME280;68523;51.336;-0.846;2024-01-15T08:45:00;100085.0;;;-0.90;91.5
79118;BME280;68523;51.336;-0.846;2024-01-15T08:48:00;100085.0;;;-0.85;91.3
79118;BME280;68523;51.336;-0.846;2024-01-15T08:51:00;100085.0;;;-0.77;91.1
79118;BME280;68523;51.336;-0.846;2024-01-15T08:54:00;100085.0;;;-0.70;90.8
79118;BME280;68523;51.336;-0.846;2024-01-15T08:57:00;100085.0;;;-0.65;90.6
79118;BME280;68523;51.336;-0.846;2024-01-15T09:00:00;100095.0;;;-0.62;90.5
79118;BME280;68523;51.336;-0.846;2024-01-15T09:03:00;100095.0;;;-0.60;90.4
79118;BME280;68523;51.336;-0.846;2024-01-15T09:06:00;100095.0;;;-0.51;90.0
79118;BME280;68523;51.336;-0.846;2024-01-15T09:09:00;100095.0;;;-0.43;89.7
79118;BME280;68523;51.336;-0.846;2024-01-15T09:12:00;100095.0;;;-0.33;89.7
79118;BME280;68523;51.336;-0.846;2024-01-15T09:15:00;100105.0;;;-0.20;89.5
79118;BME280;68523;51.336;-0.846;2024-01-15T09:18:00;100105.0;;;-0.11;89.3
79118;BME280;68523;51.336;-0.846;2024-01-15T09:21:02;100115.0;;;0.06;88.9
79118;BME280;68523;51.336;-0.846;2024-01-15T09:24:00;100115.0;;;0.08;89.1
79118;BME280;68523;51.336;-0.846;2024-01-15T09:27:00;100115.0;;;0.11;89.3
79118;BME280;68523;51.336;-0.846;2024-01-15T09:30:00;100125.0;;;0.17;89.2
79118;BME280;68523;51.336;-0.846;2024-01-15T09:33:00;100125.0;;;0.20;89.2
79118;BME280;68523;51.336;-0.846;2024-01-15T09:36:01;100125.0;;;0.20;89.0
79118;BME280;68523;51.336;-0.846;2024-01-15T09:39:00;100115.0;;;0.15;89.1
79118;BME280;68523;51.336;-0.846;2024-01-15T09:42:00;100115.0;;;0.21;89.2
79118;BME280;68523;51.336;-0.846;2024-01-15T09:45:01;100115.0;;;0.25;88.7
79118;BME280;68523;51.336;-0.846;2024-01-15T09:48:00;100115.0;;;0.25;89.2
79118;BME280;68523;51.336;-0.846;2024-01-15T09:51:01;100105.0;;;0.27;88.8
79118;BME280;68523;51.336;-0.846;2024-01-15T09:54:00;100105.0;;;0.30;88.4
79118;BME280;68523;51.336;-0.846;2024-01-15T09:57:01;100115.0;;;0.34;88.5
79118;BME280;68523;51.336;-0.846;2024-01-15T10:00:02;100115.0;;;0.38;88.4
79118;BME280;68523;51.336;-0.846;2024-01-15T10:03:01;100115.0;;;0.43;88.4
79118;BME280;68523;51.336;-0.846;2024-01-15T10:06:01;100125.0;;;0.51;88.4
79118;BME280;68523;51.336;-0.846;2024-01-15T10:09:01;100125.0;;;0.56;88.3
79118;BME280;68523;51.336;-0.846;2024-01-15T10:12:01;100125.0;;;0.68;86.8
79118;BME280;68523;51.336;-0.846;2024-01-15T10:15:01;100125.0;;;0.84;86.7
79118;BME280;68523;51.336;-0.846;2024-01-15T10:18:00;100135.0;;;0.88;86.3
79118;BME280;68523;51.336;-0.846;2024-01-15T10:21:01;100135.0;;;1.04;85.8
79118;BME280;68523;51.336;-0.846;2024-01-15T10:24:00;100145.0;;;1.27;84.8
79118;BME280;68523;51.336;-0.846;2024-01-15T10:27:05;100145.0;;;1.24;85.2
79118;BME280;68523;51.336;-0.846;2024-01-15T10:30:00;100145.0;;;1.26;84.7
79118;BME280;68523;51.336;-0.846;2024-01-15T10:33:02;100145.0;;;1.30;84.1
79118;BME280;68523;51.336;-0.846;2024-01-15T10:36:00;100155.0;;;1.39;83.0
79118;BME280;68523;51.336;-0.846;2024-01-15T10:39:00;100155.0;;;1.41;82.9
79118;BME280;68523;51.336;-0.846;2024-01-15T10:42:00;100155.0;;;1.57;82.5
79118;BME280;68523;51.336;-0.846;2024-01-15T10:45:01;100155.0;;;1.45;81.7
79118;BME280;68523;51.336;-0.846;2024-01-15T10:48:00;100155.0;;;1.43;81.1
79118;BME280;68523;51.336;-0.846;2024-01-15T10:51:00;100165.0;;;1.40;80.9
79118;BME280;68523;51.336;-0.846;2024-01-15T10:54:01;100165.0;;;1.42;80.8
79118;BME280;68523;51.336;-0.846;2024-01-15T10:57:02;100155.0;;;1.43;79.3
79118;BME280;68523;51.336;-0.846;2024-01-15T11:00:00;100155.0;;;1.43;79.2
79118;BME280;68523;51.336;-0.846;2024-01-15T11:03:01;100155.0;;;1.55;78.9
79118;BME280;68523;51.336;-0.846;2024-01-15T11:06:00;100145.0;;;1.64;79.4
79118;BME280;68523;51.336;-0.846;2024-01-15T11:09:00;100145.0;;;1.91;79.5
79118;BME280;68523;51.336;-0.846;2024-01-15T11:12:10;100145.0;;;1.66;77.8
79118;BME280;68523;51.336;-0.846;2024-01-15T11:15:02;100145.0;;;1.62;79.1
79118;BME280;68523;51.336;-0.846;2024-01-15T11:18:01;100155.0;;;1.64;78.5
79118;BME280;68523;51.336;-0.846;2024-01-15T11:24:01;100155.0;;;1.85;78.2
79118;BME280;68523;51.336;-0.846;2024-01-15T11:27:00;100155.0;;;1.88;78.2
79118;BME280;68523;51.336;-0.846;2024-01-15T11:30:03;100155.0;;;1.86;77.9
79118;BME280;68523;51.336;-0.846;2024-01-15T11:33:00;100155.0;;;1.87;77.3
79118;BME280;68523;51.336;-0.846;2024-01-15T11:36:00;100155.0;;;1.78;75.8
79118;BME280;68523;51.336;-0.846;2024-01-15T11:39:00;100155.0;;;1.88;76.9
79118;BME280;68523;51.336;-0.846;2024-01-15T11:42:02;100155.0;;;1.84;76.2
79118;BME280;68523;51.336;-0.846;2024-01-15T11:45:00;100145.0;;;1.96;76.2
79118;BME280;68523;51.336;-0.846;2024-01-15T11:48:10;100155.0;;;1.86;75.8
79118;BME280;68523;51.336;-0.846;2024-01-15T11:51:01;100155.0;;;1.93;73.4
79118;BME280;68523;51.336;-0.846;2024-01-15T11:54:03;100155.0;;;2.37;74.1
79118;BME280;68523;51.336;-0.846;2024-01-15T11:57:04;100165.0;;;2.83;72.5
79118;BME280;68523;51.336;-0.846;2024-01-15T12:00:02;100175.0;;;2.78;70.3
79118;BME280;68523;51.336;-0.846;2024-01-15T12:03:00;100175.0;;;3.46;69.3
79118;BME280;68523;51.336;-0.846;2024-01-15T12:06:00;100185.0;;;3.18;67.6
79118;BME280;68523;51.336;-0.846;2024-01-15T12:09:08;100185.0;;;3.58;65.5
79118;BME280;68523;51.336;-0.846;2024-01-15T12:12:06;100185.0;;;3.31;63.1
79118;BME280;68523;51.336;-0.846;2024-01-15T12:15:00;100185.0;;;3.28;62.7
79118;BME280;68523;51.336;-0.846;2024-01-15T12:18:02;100185.0;;;3.12;61.6
79118;BME280;68523;51.336;-0.846;2024-01-15T12:21:00;100185.0;;;2.89;62.4
79118;BME280;68523;51.336;-0.846;2024-01-15T12:24:00;100185.0;;;2.54;64.8
79118;BME280;68523;51.336;-0.846;2024-01-15T12:27:00;100185.0;;;2.50;65.2
79118;BME280;68523;51.336;-0.846;2024-01-15T12:30:00;100185.0;;;2.28;65.2
79118;BME280;68523;51.336;-0.846;2024-01-15T12:33:01;100185.0;;;2.17;65.4
79118;BME280;68523;51.336;-0.846;2024-01-15T12:36:00;100195.0;;;2.18;65.6
79118;BME280;68523;51.336;-0.846;2024-01-15T12:39:00;100195.0;;;2.22;66.3
79118;BME280;68523;51.336;-0.846;2024-01-15T12:42:00;100185.0;;;2.24;65.5
79118;BME280;68523;51.336;-0.846;2024-01-15T12:45:00;100185.0;;;2.14;65.5
79118;BME280;68523;51.336;-0.846;2024-01-15T12:48:00;100185.0;;;2.10;66.5
79118;BME280;68523;51.336;-0.846;2024-01-15T12:51:00;100175.0;;;2.12;66.7
79118;BME280;68523;51.336;-0.846;2024-01-15T12:54:00;100175.0;;;2.04;67.4
79118;BME280;68523;51.336;-0.846;2024-01-15T12:57:00;100165.0;;;2.12;68.5
79118;BME280;68523;51.336;-0.846;2024-01-15T13:00:00;100175.0;;;2.21;68.4
79118;BME280;68523;51.336;-0.846;2024-01-15T13:03:01;100175.0;;;2.24;67.5
79118;BME280;68523;51.336;-0.846;2024-01-15T13:06:00;100185.0;;;2.25;66.2
79118;BME280;68523;51.336;-0.846;2024-01-15T13:09:00;100185.0;;;2.33;65.9
79118;BME280;68523;51.336;-0.846;2024-01-15T13:12:00;100185.0;;;2.22;65.9
79118;BME280;68523;51.336;-0.846;2024-01-15T13:15:00;100185.0;;;2.23;66.2
79118;BME280;68523;51.336;-0.846;2024-01-15T13:18:00;100185.0;;;2.26;66.2
79118;BME280;68523;51.336;-0.846;2024-01-15T13:21:00;100175.0;;;2.18;65.0
79118;BME280;68523;51.336;-0.846;2024-01-15T13:24:00;100175.0;;;2.18;65.7
79118;BME280;68523;51.336;-0.846;2024-01-15T13:27:00;100185.0;;;2.29;65.1
79118;BME280;68523;51.336;-0.846;2024-01-15T13:30:00;100185.0;;;2.25;62.9
79118;BME280;68523;51.336;-0.846;2024-01-15T13:33:00;100175.0;;;2.29;63.3
79118;BME280;68523;51.336;-0.846;2024-01-15T13:36:00;100175.0;;;2.24;62.8
79118;BME280;68523;51.336;-0.846;2024-01-15T13:39:00;100175.0;;;2.28;63.3
79118;BME280;68523;51.336;-0.846;2024-01-15T13:42:00;100175.0;;;2.30;61.5
79118;BME280;68523;51.336;-0.846;2024-01-15T13:45:00;100175.0;;;2.33;60.7
79118;BME280;68523;51.336;-0.846;2024-01-15T13:48:00;100165.0;;;2.33;62.7
79118;BME280;68523;51.336;-0.846;2024-01-15T13:51:00;100165.0;;;2.25;64.1
79118;BME280;68523;51.336;-0.846;2024-01-15T13:54:00;100165.0;;;2.35;62.9
79118;BME280;68523;51.336;-0.846;2024-01-15T13:57:00;100165.0;;;2.26;62.4
79118;BME280;68523;51.336;-0.846;2024-01-15T14:00:00;100165.0;;;2.27;62.4
79118;BME280;68523;51.336;-0.846;2024-01-15T14:03:01;100165.0;;;2.19;61.4
79118;BME280;68523;51.336;-0.846;2024-01-15T14:06:00;100165.0;;;2.20;59.7
79118;BME280;68523;51.336;-0.846;2024-01-15T14:09:00;100165.0;;;2.17;58.9
79118;BME280;68523;51.336;-0.846;2024-01-15T14:12:00;100155.0;;;2.00;59.4
79118;BME280;68523;51.336;-0.846;2024-01-15T14:15:01;100155.0;;;2.07;57.6
79118;BME280;68523;51.336;-0.846;2024-01-15T14:18:00;100145.0;;;2.08;59.3
79118;BME280;68523;51.336;-0.846;2024-01-15T14:21:00;100145.0;;;2.07;59.6
79118;BME280;68523;51.336;-0.846;2024-01-15T14:24:00;100145.0;;;2.04;59.4
79118;BME280;68523;51.336;-0.846;2024-01-15T14:27:00;100145.0;;;2.01;60.3
79118;BME280;68523;51.336;-0.846;2024-01-15T14:30:00;100155.0;;;2.11;60.3
79118;BME280;68523;51.336;-0.846;2024-01-15T14:33:00;100155.0;;;2.12;57.6
79118;BME280;68523;51.336;-0.846;2024-01-15T14:36:00;100155.0;;;2.10;58.7
79118;BME280;68523;51.336;-0.846;2024-01-15T14:39:00;100155.0;;;2.01;58.7
79118;BME280;68523;51.336;-0.846;2024-01-15T14:42:00;100155.0;;;1.88;59.5
79118;BME280;68523;51.336;-0.846;2024-01-15T14:45:00;100165.0;;;1.82;60.1
79118;BME280;68523;51.336;-0.846;2024-01-15T14:48:00;100165.0;;;1.85;60.1
79118;BME280;68523;51.336;-0.846;2024-01-15T14:51:00;100165.0;;;1.92;59.9
79118;BME280;68523;51.336;-0.846;2024-01-15T14:54:00;100175.0;;;1.90;59.9
79118;BME280;68523;51.336;-0.846;2024-01-15T14:57:00;100175.0;;;1.85;58.6
79118;BME280;68523;51.336;-0.846;2024-01-15T15:00:00;100175.0;;;1.81;58.3
79118;BME280;68523;51.336;-0.846;2024-01-15T15:03:00;100175.0;;;1.73;57.0
79118;BME280;68523;51.336;-0.846;2024-01-15T15:06:00;100175.0;;;1.67;57.7
79118;BME280;68523;51.336;-0.846;2024-01-15T15:09:00;100185.0;;;1.65;57.7
79118;BME280;68523;51.336;-0.846;2024-01-15T15:12:00;100185.0;;;1.59;58.8
79118;BME280;68523;51.336;-0.846;2024-01-15T15:15:00;100195.0;;;1.53;58.7
79118;BME280;68523;51.336;-0.846;2024-01-15T15:18:00;100205.0;;;1.52;59.2
79118;BME280;68523;51.336;-0.846;2024-01-15T15:21:00;100205.0;;;1.47;60.3
79118;BME280;68523;51.336;-0.846;2024-01-15T15:24:00;100195.0;;;1.42;61.4
79118;BME280;68523;51.336;-0.846;2024-01-15T15:27:00;100195.0;;;1.36;60.6
79118;BME280;68523;51.336;-0.846;2024-01-15T15:30:00;100195.0;;;1.28;61.2
79118;BME280;68523;51.336;-0.846;2024-01-15T15:33:00;100195.0;;;1.27;60.6
79118;BME280;68523;51.336;-0.846;2024-01-15T15:36:00;100205.0;;;1.22;60.9
79118;BME280;68523;51.336;-0.846;2024-01-15T15:39:00;100205.0;;;1.17;61.4
79118;BME280;68523;51.336;-0.846;2024-01-15T15:42:00;100205.0;;;1.08;62.4
79118;BME280;68523;51.336;-0.846;2024-01-15T15:45:01;100215.0;;;1.00;61.7
79118;BME280;68523;51.336;-0.846;2024-01-15T15:48:00;100215.0;;;0.94;62.2
79118;BME280;68523;51.336;-0.846;2024-01-15T15:51:00;100215.0;;;0.93;61.8
79118;BME280;68523;51.336;-0.846;2024-01-15T15:54:00;100215.0;;;0.84;62.8
79118;BME280;68523;51.336;-0.846;2024-01-15T15:57:00;100215.0;;;0.72;63.4
79118;BME280;68523;51.336;-0.846;2024-01-15T16:00:00;100215.0;;;0.56;64.5
79118;BME280;68523;51.336;-0.846;2024-01-15T16:03:00;100215.0;;;0.47;65.4
79118;BME280;68523;51.336;-0.846;2024-01-15T16:06:00;100215.0;;;0.47;65.1
79118;BME280;68523;51.336;-0.846;2024-01-15T16:09:00;100225.0;;;0.48;65.3